Time;durP1;ratioP1;P1;durP2;ratioP2;P2;SDS_P1;SDS_P2;PMS_P1;PMS_P2;Temp;Humidity;BMP_temperature;BMP_pressure;BME280_temperature;BME280_humidity;BME280_pressure;Samples;Min_cycle;Max_cycle;Signal;HPM_P1;HPM_P2
2023/02/21 02:16:01;;;;;;;13.48;1.73;;;;;;;6.03;61.53;101516.31;4954720;28;20039;-71
2023/02/21 02:18:53;;;;;;;14.98;2.00;;;;;;;6.31;60.15;101500.47;4973363;28;20050;-71
2023/02/21 02:21:28;;;;;;;16.05;2.05;;;;;;;6.41;60.28;101511.59;4957735;28;20043;-71
2023/02/21 02:24:49;;;;;;;18.90;2.03;;;;;;;5.72;61.73;101514.91;4961507;28;20722;-72
2023/02/21 02:27:41;;;;;;;16.52;1.83;;;;;;;6.42;59.96;101497.75;4931595;28;20063;-72
2023/02/21 02:30:44;;;;;;;8.88;1.70;;;;;;;6.38;60.30;101502.09;4963172;28;20512;-72
2023/02/21 02:33:39;;;;;;;12.73;2.22;;;;;;;6.38;60.61;101502.09;4955905;28;20035;-71
2023/02/21 02:36:20;;;;;;;17.45;1.80;;;;;;;6.62;59.78;101511.31;4969115;28;20042;-71
2023/02/21 02:39:15;;;;;;;14.40;2.03;;;;;;;6.42;60.36;101505.53;4924879;28;20061;-71
2023/02/21 02:42:19;;;;;;;12.13;2.00;;;;;;;5.71;62.98;101518.38;4969442;28;20043;-72
2023/02/21 02:45:01;;;;;;;11.73;1.42;;;;;;;5.90;62.52;101519.06;4959493;28;20265;-71
2023/02/21 02:47:33;;;;;;;18.38;1.92;;;;;;;6.12;61.76;101512.75;4957877;28;20051;-72
2023/02/21 02:50:04;;;;;;;16.77;2.63;;;;;;;6.65;60.16;101510.44;4960147;28;20034;-71
2023/02/21 02:52:30;;;;;;;9.82;0.93;;;;;;;6.27;61.31;101520.38;4956945;28;20051;-71
2023/02/21 02:55:04;;;;;;;11.25;1.05;;;;;;;6.47;60.60;101525.34;4963216;28;20113;-71
2023/02/21 02:57:39;;;;;;;4.50;0.65;;;;;;;6.12;61.33;101519.69;4962142;28;20043;-73
2023/02/21 03:00:09;;;;;;;18.67;1.67;;;;;;;6.58;60.51;101525.22;4959326;28;20419;-73
2023/02/21 03:02:41;;;;;;;11.73;1.50;;;;;;;6.34;61.23;101525.53;4965429;28;20050;-73
2023/02/21 03:05:30;;;;;;;8.80;1.70;;;;;;;6.42;60.96;101532.34;4977547;28;20404;-73
2023/02/21 03:08:05;;;;;;;14.48;1.42;;;;;;;6.34;61.48;101534.16;4958176;28;20078;-73
2023/02/21 03:11:06;;;;;;;12.52;1.83;;;;;;;6.69;59.95;101540.69;4967301;28;20044;-73
2023/02/21 03:13:53;;;;;;;5.80;0.90;;;;;;;6.44;61.03;101542.69;4949599;28;20400;-73
2023/02/21 03:16:30;;;;;;;11.10;1.65;;;;;;;6.32;61.21;101541.13;4959352;28;20026;-73
2023/02/21 03:19:00;;;;;;;12.27;1.02;;;;;;;6.57;60.33;101548.63;4955948;28;20054;-73
2023/02/21 03:21:41;;;;;;;10.05;0.80;;;;;;;6.53;60.62;101557.31;4959913;28;20038;-77
2023/02/21 03:24:11;;;;;;;;;;;;;;;6.60;60.70;101557.25;4961891;28;20030;-76
2023/02/21 03:26:41;;;;;;;8.60;1.15;;;;;;;6.49;60.58;101559.09;4967905;28;19918;-77
2023/02/21 03:29:28;;;;;;;13.52;1.17;;;;;;;6.49;60.53;101562.56;4964035;28;20519;-77
2023/02/21 03:34:43;;;;;;;13.50;1.33;;;;;;;6.85;59.59;101565.56;4972046;28;20049;-71
2023/02/21 03:37:35;;;;;;;15.30;1.90;;;;;;;6.61;60.10;101563.28;4962337;28;20070;-71
2023/02/21 03:40:06;;;;;;;18.05;1.40;;;;;;;6.70;60.12;101568.38;4963946;28;20057;-69
2023/02/21 03:42:33;;;;;;;18.40;1.17;;;;;;;6.46;60.69;101561.72;4952652;28;20042;-73
2023/02/21 03:44:59;;;;;;;10.07;1.70;;;;;;;6.42;60.63;101573.91;4935258;28;20398;-73
2023/02/21 03:47:25;;;;;;;10.88;1.70;;;;;;;6.18;61.26;101574.13;4964069;28;20046;-73
2023/02/21 03:49:51;;;;;;;5.95;1.13;;;;;;;6.34;61.00;101578.31;4954526;28;20030;-72
2023/02/21 03:52:17;;;;;;;9.10;1.35;;;;;;;6.65;59.88;101583.16;4967388;28;20393;-73
2023/02/21 03:54:43;;;;;;;7.32;1.25;;;;;;;6.36;60.87;101586.94;4963345;28;20072;-73
2023/02/21 03:57:13;;;;;;;12.77;2.13;;;;;;;6.23;60.78;101580.13;4953792;28;20047;-73
2023/02/21 03:59:43;;;;;;;10.90;1.45;;;;;;;6.39;60.37;101580.84;4981391;28;20089;-74
2023/02/21 04:02:08;;;;;;;13.50;1.90;;;;;;;6.06;61.33;101594.16;4963777;28;20049;-74
2023/02/21 04:04:34;;;;;;;10.80;1.33;;;;;;;6.36;60.77;101586.09;4961369;28;20117;-75
2023/02/21 04:07:17;;;;;;;13.23;1.77;;;;;;;6.30;60.92;101589.59;4945207;28;20129;-70
2023/02/21 04:09:46;;;;;;;15.85;1.58;;;;;;;6.25;61.06;101578.38;4974406;28;20030;-71
2023/02/21 04:12:17;;;;;;;9.35;1.00;;;;;;;6.48;60.40;101584.22;4977926;28;20053;-70
2023/02/21 04:14:43;;;;;;;6.28;0.95;;;;;;;6.25;60.76;101578.38;4962109;28;20031;-70
2023/02/21 04:17:08;;;;;;;19.10;1.65;;;;;;;6.44;60.07;101579.94;4964884;28;20670;-70
2023/02/21 04:19:34;;;;;;;10.25;1.48;;;;;;;6.22;61.11;101576.69;4951486;28;20129;-71
2023/02/21 04:22:03;;;;;;;5.95;1.40;;;;;;;6.11;61.44;101585.47;4992097;28;20717;-71
2023/02/21 04:24:29;;;;;;;6.55;0.77;;;;;;;6.40;60.43;101573.06;4945922;28;20031;-73
2023/02/21 04:26:55;;;;;;;11.85;1.73;;;;;;;6.27;61.03;101577.47;4962728;28;20030;-71
2023/02/21 04:29:22;;;;;;;8.50;1.25;;;;;;;6.14;61.69;101582.81;4977944;28;20129;-74
2023/02/21 04:31:47;;;;;;;6.22;1.25;;;;;;;6.18;61.09;101574.13;4975696;28;20650;-69
2023/02/21 04:34:15;;;;;;;10.95;1.33;;;;;;;6.20;61.14;101570.66;4949200;28;20031;-69
2023/02/21 04:36:42;;;;;;;9.30;1.35;;;;;;;6.37;60.88;101572.22;4955569;28;20042;-69
2023/02/21 04:39:08;;;;;;;9.23;0.70;;;;;;;6.33;60.68;101565.34;4959953;28;20058;-68
2023/02/21 04:41:34;;;;;;;10.38;0.85;;;;;;;6.56;60.30;101570.28;4967750;28;20561;-68
2023/02/21 04:44:00;;;;;;;3.50;0.70;;;;;;;6.26;61.19;101567.09;4975665;28;20038;-68
2023/02/21 04:46:30;;;;;;;3.83;0.50;;;;;;;6.46;60.47;101562.59;4966142;28;20085;-68
2023/02/21 04:48:58;;;;;;;5.57;0.63;;;;;;;6.36;60.71;101565.31;4958355;28;20038;-68
2023/02/21 04:51:26;;;;;;;1.70;0.68;;;;;;;6.36;60.45;101557.53;4979033;28;20490;-69
2023/02/21 04:53:54;;;;;;;8.55;1.15;;;;;;;6.22;60.86;101560.25;4960851;28;20157;-68
2023/02/21 04:56:22;;;;;;;6.53;1.10;;;;;;;6.03;61.63;101567.34;4958651;28;20042;-68
2023/02/21 04:58:48;;;;;;;6.93;0.80;;;;;;;6.00;61.79;101555.28;4958205;28;20677;-68
2023/02/21 05:01:16;;;;;;;4.97;0.90;;;;;;;6.37;60.77;101562.69;4961900;28;20069;-69
2023/02/21 05:03:42;;;;;;;3.90;0.77;;;;;;;6.43;60.55;101565.22;4961853;28;20038;-68
2023/02/21 05:06:09;;;;;;;3.22;1.00;;;;;;;6.50;60.15;101564.25;4961273;28;20368;-69
2023/02/21 05:08:35;;;;;;;8.05;0.50;;;;;;;6.40;60.46;101569.59;4988687;28;20058;-68
2023/02/21 05:11:01;;;;;;;9.57;1.40;;;;;;;6.39;60.29;101566.13;4962081;28;20284;-70
2023/02/21 05:13:27;;;;;;;6.45;1.88;;;;;;;6.20;61.37;101565.44;4960446;28;20112;-75
2023/02/21 05:15:52;;;;;;;5.57;0.93;;;;;;;6.37;60.64;101565.28;4967245;28;20042;-74
2023/02/21 05:18:22;;;;;;;2.08;0.65;;;;;;;6.39;60.60;101568.72;4963451;28;20061;-73
2023/02/21 05:20:50;;;;;;;3.78;0.38;;;;;;;6.26;60.80;101564.50;4962216;28;20034;-74
2023/02/21 05:23:32;;;;;;;4.68;0.70;;;;;;;6.15;61.49;101571.56;4949504;28;20523;-74
2023/02/21 05:26:07;;;;;;;6.53;0.90;;;;;;;6.12;61.40;101571.59;4959176;28;20231;-73
2023/02/21 05:28:33;;;;;;;1.20;0.68;;;;;;;6.22;61.13;101568.91;4965122;28;20045;-76
2023/02/21 05:30:58;;;;;;;2.45;0.47;;;;;;;6.52;60.35;101566.84;4964799;28;20341;-76
2023/02/21 05:33:24;;;;;;;6.30;0.90;;;;;;;6.29;60.68;101569.72;4962848;28;20975;-76
2023/02/21 05:35:50;;;;;;;6.82;2.08;;;;;;;6.37;60.75;101570.47;5013599;28;20052;-76
2023/02/21 05:38:21;;;;;;;3.42;0.70;;;;;;;6.42;60.36;101570.44;4984307;28;20114;-74
2023/02/21 05:40:46;;;;;;;7.70;0.85;;;;;;;6.32;61.02;101568.81;4987559;28;20183;-75
2023/02/21 05:43:12;;;;;;;3.45;1.15;;;;;;;6.25;60.81;101568.00;4952564;28;20504;-75
2023/02/21 05:45:37;;;;;;;8.02;1.17;;;;;;;6.27;60.67;101567.09;4943879;28;20788;-74
2023/02/21 05:48:03;;;;;;;2.85;0.65;;;;;;;6.33;60.49;101571.41;4944236;28;20066;-71
2023/02/21 05:50:29;;;;;;;4.60;1.20;;;;;;;6.43;60.50;101567.81;4933560;28;20031;-73
2023/02/21 05:52:58;;;;;;;2.75;0.80;;;;;;;6.07;61.63;101577.69;4940602;28;20066;-71
2023/02/21 05:55:24;;;;;;;5.97;1.30;;;;;;;6.37;60.87;101575.66;4941370;28;20035;-72
2023/02/21 05:57:50;;;;;;;1.90;0.75;;;;;;;6.43;60.57;101572.16;4949101;28;20058;-68
2023/02/21 06:00:21;;;;;;;6.82;1.00;;;;;;;6.49;60.27;101572.94;4939810;28;20100;-69
2023/02/21 06:02:49;;;;;;;3.67;0.50;;;;;;;6.21;61.04;101572.34;4939976;28;20047;-70
2023/02/21 06:05:17;;;;;;;2.97;1.10;;;;;;;5.82;62.12;101565.84;4938731;28;20039;-69
2023/02/21 06:07:43;;;;;;;3.40;0.73;;;;;;;6.20;61.37;101569.78;4923003;28;20039;-71
2023/02/21 06:10:09;;;;;;;4.80;0.60;;;;;;;5.79;62.28;101581.41;4955706;28;20031;-68
2023/02/21 06:12:35;;;;;;;3.15;0.80;;;;;;;6.35;60.54;101572.25;4942637;28;20103;-69
2023/02/21 06:15:01;;;;;;;2.90;0.73;;;;;;;6.43;60.55;101572.16;4932054;28;20082;-68
2023/02/21 06:17:26;;;;;;;3.47;0.68;;;;;;;6.14;60.79;101585.41;4939510;28;20130;-68
2023/02/21 06:19:55;;;;;;;2.97;0.50;;;;;;;6.08;61.17;101581.13;4950003;28;20047;-67
2023/02/21 06:22:21;;;;;;;2.03;0.60;;;;;;;6.11;60.88;101575.09;4933478;28;20503;-68
2023/02/21 06:24:46;;;;;;;3.30;0.50;;;;;;;6.07;61.41;101588.06;4943208;28;20034;-69
2023/02/21 06:27:15;;;;;;;2.65;0.68;;;;;;;6.11;61.10;101582.88;4939224;28;20054;-68
2023/02/21 06:29:40;;;;;;;7.90;0.80;;;;;;;6.27;60.53;101577.47;4961233;28;20073;-69
2023/02/21 06:32:06;;;;;;;2.10;0.80;;;;;;;5.89;61.89;101580.47;4938550;28;20130;-68
2023/02/21 06:34:36;;;;;;;3.78;0.60;;;;;;;6.05;61.28;101587.22;4939356;28;20122;-69
2023/02/21 06:37:02;;;;;;;1.58;0.93;;;;;;;6.24;60.28;101587.06;4919586;28;20050;-67
2023/02/21 06:39:27;;;;;;;6.57;1.17;;;;;;;6.06;61.03;101583.78;4957594;28;20090;-68
2023/02/21 06:41:53;;;;;;;3.83;1.15;;;;;;;5.76;62.18;101586.63;4939612;28;20035;-68
2023/02/21 06:44:19;;;;;;;8.30;1.88;;;;;;;5.78;61.86;101583.16;4939207;28;20848;-70
2023/02/21 06:46:45;;;;;;;4.93;2.67;;;;;;;5.57;62.36;101585.91;4946400;28;20034;-69
2023/02/21 06:49:11;;;;;;;4.15;1.98;;;;;;;6.12;61.03;101585.44;4940997;28;20126;-72
2023/02/21 06:51:39;;;;;;;10.02;2.38;;;;;;;6.11;60.76;101588.06;4939019;28;20038;-72
2023/02/21 06:54:07;;;;;;;5.60;2.45;;;;;;;5.99;60.97;101587.28;4927620;28;20106;-73
2023/02/21 06:56:33;;;;;;;4.82;2.60;;;;;;;6.01;61.31;101592.47;4940058;28;20089;-72
2023/02/21 06:58:58;;;;;;;10.02;3.03;;;;;;;6.20;60.71;101594.00;4945240;28;20051;-73
2023/02/21 07:01:28;;;;;;;9.57;2.38;;;;;;;6.31;60.18;101593.06;4946386;28;20042;-73
2023/02/21 07:03:57;;;;;;;6.10;2.10;;;;;;;6.48;59.78;101589.41;4952597;28;20563;-72
2023/02/21 07:06:23;;;;;;;9.43;2.47;;;;;;;6.25;60.57;101591.38;4947685;28;20648;-69
2023/02/21 07:08:51;;;;;;;6.60;3.17;;;;;;;5.95;61.33;101589.91;4960862;28;20401;-69
2023/02/21 07:11:20;;;;;;;5.22;2.80;;;;;;;5.87;61.54;101596.03;4943344;28;20041;-72
2023/02/21 07:13:49;;;;;;;9.93;2.97;;;;;;;6.28;60.60;101589.63;4948508;28;20043;-69
2023/02/21 07:16:16;;;;;;;5.20;2.42;;;;;;;6.28;60.71;101589.63;4943685;28;20035;-69
2023/02/21 07:18:47;;;;;;;4.18;1.67;;;;;;;6.16;61.06;101591.47;4944949;28;20042;-70
2023/02/21 07:21:14;;;;;;;5.47;2.30;;;;;;;6.32;60.63;101598.25;4954268;28;20043;-70
2023/02/21 07:23:42;;;;;;;7.60;2.13;;;;;;;6.35;60.43;101595.63;4942483;28;20148;-71
2023/02/21 07:26:07;;;;;;;4.95;1.92;;;;;;;6.42;60.18;101602.47;4945579;28;20065;-74
2023/02/21 07:28:33;;;;;;;9.82;1.40;;;;;;;6.28;60.19;101600.03;4943863;28;20133;-72
2023/02/21 07:30:59;;;;;;;5.82;2.00;;;;;;;6.20;60.75;101601.78;4948500;28;20050;-73
2023/02/21 07:33:27;;;;;;;3.88;1.73;;;;;;;6.33;60.26;101597.38;4945532;28;21730;-70
2023/02/21 07:35:53;;;;;;;6.25;1.67;;;;;;;6.59;60.03;101604.84;4947146;28;20034;-69
2023/02/21 07:38:23;;;;;;;12.00;2.50;;;;;;;6.41;60.44;101605.91;4944745;28;20515;-71
2023/02/21 07:40:48;;;;;;;12.50;2.38;;;;;;;6.61;59.82;101612.63;4946642;28;20037;-69
2023/02/21 07:43:15;;;;;;;7.47;2.22;;;;;;;6.53;59.63;101620.53;4947523;28;20043;-68
2023/02/21 07:45:42;;;;;;;6.60;2.38;;;;;;;6.39;60.05;101622.41;4953565;28;20137;-70
2023/02/21 07:48:08;;;;;;;6.85;3.15;;;;;;;6.55;59.94;101623.09;4946402;28;20041;-70
2023/02/21 07:50:34;;;;;;;6.75;2.22;;;;;;;6.85;59.14;101620.13;4946253;28;21000;-69
2023/02/21 07:53:02;;;;;;;9.48;2.67;;;;;;;6.54;59.85;101629.19;4947826;28;20513;-70
2023/02/21 07:55:33;;;;;;;7.90;2.28;;;;;;;6.39;60.23;101628.44;4944683;28;20042;-71
2023/02/21 07:57:59;;;;;;;10.05;3.08;;;;;;;6.63;60.02;101626.47;4945520;28;20042;-70
2023/02/21 08:00:25;;;;;;;8.80;2.45;;;;;;;6.47;59.86;101631.84;4943416;28;20949;-70
2023/02/21 08:02:51;;;;;;;7.25;1.95;;;;;;;6.48;59.86;101636.16;4947190;28;20113;-69
2023/02/21 08:05:18;;;;;;;6.80;1.00;;;;;;;5.97;61.28;101635.75;4945580;28;20020;-68
2023/02/21 08:07:54;;;;;;;5.72;1.45;;;;;;;6.47;60.29;101639.63;4946737;28;20035;-72
2023/02/21 08:10:25;;;;;;;6.80;2.83;;;;;;;6.66;59.82;101635.09;4939093;28;20134;-69
2023/02/21 08:12:51;;;;;;;10.52;2.65;;;;;;;6.73;59.56;101638.50;4952458;28;20047;-69
2023/02/21 08:15:19;;;;;;;5.90;2.65;;;;;;;6.17;60.87;101642.47;4941083;28;20080;-68
2023/02/21 08:17:48;;;;;;;12.10;3.95;;;;;;;6.05;61.64;101649.50;4942225;28;20488;-70
2023/02/21 08:20:14;;;;;;;11.82;2.97;;;;;;;6.00;61.62;101659.06;4942247;28;20101;-69
2023/02/21 08:22:40;;;;;;;18.27;3.75;;;;;;;5.77;62.36;101659.25;4933578;28;20576;-69
2023/02/21 08:25:06;;;;;;;15.45;3.83;;;;;;;6.27;60.89;101651.91;4934099;28;20468;-68
2023/02/21 08:27:31;;;;;;;20.38;3.72;;;;;;;6.05;61.69;101662.47;4942977;28;20535;-69
2023/02/21 08:29:59;;;;;;;15.35;3.22;;;;;;;5.86;61.86;101654.00;4961085;28;20034;-68
2023/02/21 08:32:25;;;;;;;21.02;3.38;;;;;;;6.35;60.74;101668.31;4964424;28;20076;-68
2023/02/21 08:34:50;;;;;;;17.55;2.97;;;;;;;6.46;60.77;101661.28;4960353;28;20062;-67
2023/02/21 08:37:18;;;;;;;21.05;3.85;;;;;;;6.65;60.19;101667.13;4963662;28;20619;-69
2023/02/21 08:39:49;;;;;;;11.32;3.40;;;;;;;6.25;60.95;101667.50;4961989;28;20068;-69
2023/02/21 08:42:15;;;;;;;11.30;3.40;;;;;;;6.15;61.18;101665.00;4959337;28;20106;-68
2023/02/21 08:44:47;;;;;;;16.15;3.38;;;;;;;6.22;60.97;101667.53;4960673;28;20076;-68
2023/02/21 08:47:17;;;;;;;12.75;3.25;;;;;;;6.06;61.16;101671.13;4961715;28;20051;-68
2023/02/21 08:49:46;;;;;;;22.15;2.85;;;;;;;6.41;60.80;101667.38;4962942;28;20042;-68
2023/02/21 08:52:15;;;;;;;11.25;3.67;;;;;;;6.64;60.22;101670.63;4961482;28;20051;-70
2023/02/21 08:54:41;;;;;;;17.50;3.28;;;;;;;6.94;59.45;101673.75;4959505;28;20030;-70
2023/02/21 08:57:06;;;;;;;17.85;3.35;;;;;;;6.39;60.87;101670.00;4959227;28;20096;-70
2023/02/21 08:59:33;;;;;;;17.25;2.85;;;;;;;6.74;60.13;101673.13;4963229;28;20454;-69
2023/02/21 09:02:00;;;;;;;15.65;3.40;;;;;;;6.66;60.36;101674.06;4960246;28;20119;-70
2023/02/21 09:04:28;;;;;;;15.20;3.83;;;;;;;6.61;59.83;101681.03;4960764;28;20105;-70
2023/02/21 09:06:56;;;;;;;15.90;4.85;;;;;;;7.02;59.35;101677.13;4967015;28;20044;-69
2023/02/21 09:09:21;;;;;;;22.30;2.78;;;;;;;6.76;59.58;101682.63;4958337;28;20097;-67
2023/02/21 09:11:50;;;;;;;25.85;4.05;;;;;;;6.55;60.08;101685.44;4961470;28;20030;-67
2023/02/21 09:14:16;;;;;;;10.30;3.28;;;;;;;6.27;60.89;101685.66;4955996;28;20035;-67
2023/02/21 09:16:42;;;;;;;26.27;3.30;;;;;;;6.70;60.09;101683.53;4964288;28;20104;-70
2023/02/21 09:19:08;;;;;;;18.98;2.83;;;;;;;6.95;59.36;101680.66;4959671;28;20030;-70
2023/02/21 09:21:34;;;;;;;18.85;3.60;;;;;;;7.09;58.48;101678.75;4955997;28;20034;-68
2023/02/21 09:24:01;;;;;;;23.40;4.65;;;;;;;6.95;58.67;101687.59;4961135;28;20420;-67
2023/02/21 09:26:30;;;;;;;13.38;2.95;;;;;;;6.89;58.79;101676.41;4954901;28;20157;-69
2023/02/21 09:28:57;;;;;;;19.17;4.90;;;;;;;7.00;58.52;101675.38;4957843;28;20141;-66
2023/02/21 09:31:23;;;;;;;20.25;3.80;;;;;;;6.98;58.71;101682.38;4954901;28;20460;-68
2023/02/21 09:33:48;;;;;;;20.05;4.28;;;;;;;7.09;58.81;101681.34;4958228;28;20125;-67
2023/02/21 09:36:14;;;;;;;17.70;3.47;;;;;;;6.91;59.22;101682.44;4957899;28;20030;-67
2023/02/21 09:38:40;;;;;;;24.95;5.22;;;;;;;7.00;59.15;101683.19;4960336;28;20519;-67
2023/02/21 09:41:12;;;;;;;16.13;4.25;;;;;;;7.05;59.05;101671.03;4975183;28;20082;-68
2023/02/21 09:43:42;;;;;;;15.75;3.70;;;;;;;6.98;59.47;101674.56;4956316;28;20498;-67
2023/02/21 09:46:15;;;;;;;19.15;3.97;;;;;;;6.87;58.84;101679.91;4959589;28;20030;-67
2023/02/21 09:48:44;;;;;;;17.58;5.75;;;;;;;7.59;57.47;101684.19;4955408;28;20046;-67
2023/02/21 09:51:12;;;;;;;19.48;3.92;;;;;;;7.37;58.06;101688.78;4959313;28;20293;-67
2023/02/21 09:53:40;;;;;;;18.95;3.90;;;;;;;7.12;58.48;101683.91;4954103;28;20567;-67
2023/02/21 09:56:29;;;;;;;19.95;4.28;;;;;;;7.26;58.14;101686.31;4959113;28;20038;-68
2023/02/21 09:58:55;;;;;;;15.25;4.53;;;;;;;7.34;57.74;101686.25;4956278;28;20602;-67
2023/02/21 10:01:31;;;;;;;15.77;4.15;;;;;;;7.17;58.44;101686.44;4958206;28;20034;-67
2023/02/21 10:04:32;;;;;;;14.25;4.50;;;;;;;6.88;58.50;101687.66;4950757;28;20070;-67
2023/02/21 10:07:16;;;;;;;25.77;5.00;;;;;;;7.06;58.70;101696.13;4956642;28;20068;-67
2023/02/21 10:09:58;;;;;;;21.33;5.07;;;;;;;6.63;60.10;101691.41;4955884;28;20711;-67
2023/02/21 10:12:30;;;;;;;;;;;;;;;6.94;59.24;101701.47;4957258;28;20073;-66
2023/02/21 10:14:59;;;;;;;13.30;3.35;;;;;;;6.44;60.42;101691.59;4959936;28;19922;-69
2023/02/21 10:17:35;;;;;;;17.73;2.95;;;;;;;6.86;59.53;101692.03;4973047;28;20053;-67
2023/02/21 10:20:56;;;;;;;15.35;2.92;;;;;;;7.32;58.09;101688.84;4963605;28;20130;-68
2023/02/21 10:23:34;;;;;;;14.77;3.67;;;;;;;7.29;58.03;101691.50;4942468;28;20794;-68
2023/02/21 10:26:08;;;;;;;16.35;4.13;;;;;;;7.09;58.49;101693.50;4964152;28;20642;-67
2023/02/21 10:28:37;;;;;;;21.45;3.60;;;;;;;6.82;59.21;101700.75;4927653;28;20051;-70
2023/02/21 10:31:19;;;;;;;9.32;3.10;;;;;;;7.51;57.49;101707.69;4957105;28;20030;-68
2023/02/21 10:33:46;;;;;;;14.10;3.95;;;;;;;7.41;57.58;101710.41;4955381;28;20039;-67
2023/02/21 10:36:20;;;;;;;10.40;3.22;;;;;;;7.47;57.05;101705.16;4965799;28;20198;-68
2023/02/21 10:39:12;;;;;;;14.25;3.78;;;;;;;7.28;57.68;101705.38;4953993;28;20141;-67
2023/02/21 10:41:41;;;;;;;25.67;4.45;;;;;;;7.28;58.11;101712.31;4941832;28;20080;-73
2023/02/21 10:44:14;;;;;;;18.08;4.30;;;;;;;7.47;57.43;101710.34;4949217;28;20049;-70
2023/02/21 10:46:48;;;;;;;24.35;3.90;;;;;;;7.36;57.62;101709.63;4968296;28;20035;-70
2023/02/21 10:49:23;;;;;;;13.38;3.13;;;;;;;7.29;57.71;101712.31;4975777;28;20049;-74
2023/02/21 10:52:05;;;;;;;11.32;4.13;;;;;;;7.71;57.28;101710.03;4988471;28;20076;-76
2023/02/21 10:54:31;;;;;;;17.05;4.43;;;;;;;7.98;56.50;101715.72;4974323;28;20101;-69
2023/02/21 10:56:59;;;;;;;14.50;3.85;;;;;;;8.39;56.13;101703.72;4972604;28;20042;-70
2023/02/21 10:59:28;;;;;;;12.65;3.97;;;;;;;8.11;55.97;101716.34;4963355;28;20045;-68
2023/02/21 11:01:56;;;;;;;18.20;5.57;;;;;;;8.07;56.05;101718.16;4960306;28;20049;-71
2023/02/21 11:04:24;;;;;;;11.38;3.60;;;;;;;8.31;55.82;101716.03;4960271;28;20149;-68
2023/02/21 11:07:10;;;;;;;15.45;3.38;;;;;;;7.92;56.11;101718.41;4961452;28;20062;-68
2023/02/21 11:09:41;;;;;;;11.38;4.03;;;;;;;8.03;56.18;101724.28;4956540;28;20081;-67
2023/02/21 11:12:16;;;;;;;16.13;4.70;;;;;;;7.75;56.98;101721.25;4960042;28;20042;-67
2023/02/21 11:14:45;;;;;;;18.60;5.75;;;;;;;7.43;57.38;101719.06;4957650;28;20487;-69
2023/02/21 11:17:20;;;;;;;10.93;4.10;;;;;;;7.70;57.15;101721.31;4956782;28;20043;-70
2023/02/21 11:20:25;;;;;;;11.23;4.00;;;;;;;7.21;57.71;101724.53;4953836;28;20052;-67
2023/02/21 11:22:51;;;;;;;14.45;4.95;;;;;;;7.25;57.62;101731.41;4924626;28;20133;-71
2023/02/21 11:25:30;;;;;;;11.60;4.40;;;;;;;7.13;57.71;101723.75;4929749;28;21021;-69
2023/02/21 11:28:18;;;;;;;14.85;4.40;;;;;;;7.15;57.88;101724.59;4943768;28;20101;-70
2023/02/21 11:31:05;;;;;;;9.35;3.78;;;;;;;7.28;57.58;101733.13;4957049;28;20034;-70
2023/02/21 11:33:32;;;;;;;15.85;4.40;;;;;;;7.51;57.13;101723.28;4942204;28;20043;-68
2023/02/21 11:36:15;;;;;;;18.38;4.47;;;;;;;7.56;57.35;101733.66;4940324;28;20034;-67
2023/02/21 11:38:57;;;;;;;12.30;4.65;;;;;;;7.36;57.54;101730.44;4929392;28;20118;-69
2023/02/21 11:41:28;;;;;;;;;;;;;;;7.58;56.58;101724.09;4939699;28;20105;-68
2023/02/21 11:43:55;;;;;;;7.05;3.30;;;;;;;7.74;56.96;101717.78;4935963;28;19936;-71
2023/02/21 11:46:43;;;;;;;13.27;3.78;;;;;;;7.94;56.44;101724.44;4940461;28;20035;-68
2023/02/21 11:50:13;;;;;;;12.32;3.30;;;;;;;8.04;56.14;101706.91;4959719;28;20053;-67
2023/02/21 11:53:21;;;;;;;11.27;3.72;;;;;;;8.31;55.65;101722.06;4939598;28;20051;-70
2023/02/21 11:56:02;;;;;;;20.60;3.80;;;;;;;8.56;54.40;101714.72;4943686;28;20132;-68
2023/02/21 11:58:52;;;;;;;15.40;3.08;;;;;;;8.80;54.65;101716.91;4960148;28;20602;-67
2023/02/21 12:01:31;;;;;;;13.50;3.72;;;;;;;8.65;54.03;101713.69;4978329;28;20038;-67
2023/02/21 12:03:57;;;;;;;13.90;3.03;;;;;;;8.33;54.96;101709.88;4960095;28;20475;-69
2023/02/21 12:06:30;;;;;;;8.98;2.67;;;;;;;8.54;54.81;101710.44;4963430;28;20042;-70
2023/02/21 12:09:25;;;;;;;7.40;2.50;;;;;;;8.63;54.17;101704.16;4960978;28;20065;-68
2023/02/21 12:12:15;;;;;;;8.50;2.78;;;;;;;8.85;53.58;101702.91;4959376;28;20076;-68
2023/02/21 12:14:51;;;;;;;6.13;1.88;;;;;;;9.09;52.74;101695.47;4962031;28;20053;-69
2023/02/21 12:17:19;;;;;;;7.57;2.15;;;;;;;9.47;53.25;101691.19;4961006;28;20051;-68
2023/02/21 12:20:10;;;;;;;3.92;1.80;;;;;;;9.07;52.72;101687.69;4963615;28;21826;-68
2023/02/21 12:22:41;;;;;;;10.98;2.67;;;;;;;9.14;52.87;101693.63;4962293;28;20046;-69
2023/02/21 12:25:12;;;;;;;8.00;1.95;;;;;;;9.11;52.33;101691.94;4961335;28;20034;-70
2023/02/21 12:27:52;;;;;;;9.65;2.30;;;;;;;9.15;52.88;101684.94;4955944;28;20583;-69
2023/02/21 12:30:29;;;;;;;4.80;1.67;;;;;;;9.10;52.89;101681.56;4955841;28;20128;-69
2023/02/21 12:33:09;;;;;;;11.98;2.17;;;;;;;9.24;53.11;101689.09;4959998;28;20046;-69
2023/02/21 12:36:12;;;;;;;10.20;2.00;;;;;;;9.03;52.69;101677.34;4956667;28;20728;-68
2023/02/21 12:38:46;;;;;;;9.02;1.67;;;;;;;8.77;53.28;101679.59;4980139;28;20221;-68
2023/02/21 12:41:27;;;;;;;5.88;1.52;;;;;;;8.71;53.11;101676.25;4960175;28;20035;-69
2023/02/21 12:44:03;;;;;;;4.63;2.10;;;;;;;8.82;53.48;101676.91;4958554;28;20050;-69
2023/02/21 12:46:39;;;;;;;10.77;2.13;;;;;;;8.92;53.36;101670.63;4958985;28;20030;-70
2023/02/21 12:49:16;;;;;;;9.95;1.95;;;;;;;8.81;53.81;101674.31;4961324;28;20140;-69
2023/02/21 12:51:51;;;;;;;12.00;3.17;;;;;;;8.02;55.09;101675.69;4956283;28;20742;-69
2023/02/21 12:54:32;;;;;;;11.18;2.72;;;;;;;8.87;53.88;101675.03;4972180;28;20031;-69
2023/02/21 12:57:17;;;;;;;11.95;2.70;;;;;;;8.86;52.71;101672.50;4969076;28;20056;-68
2023/02/21 13:00:11;;;;;;;15.63;3.50;;;;;;;9.24;53.20;101678.66;4956696;28;20668;-69
2023/02/21 13:03:09;;;;;;;12.60;3.67;;;;;;;9.04;53.58;101671.25;4959162;28;20129;-69
2023/02/21 13:05:59;;;;;;;15.95;4.07;;;;;;;8.89;53.29;101664.59;4956357;28;20039;-70
2023/02/21 13:08:48;;;;;;;12.93;3.35;;;;;;;9.01;53.30;101666.97;4958854;28;20431;-70
2023/02/21 13:11:26;;;;;;;14.40;4.82;;;;;;;8.86;53.26;101672.50;4962213;28;20035;-69
2023/02/21 13:13:52;;;;;;;12.50;4.15;;;;;;;8.63;53.92;101665.06;4957826;28;20117;-68
2023/02/21 13:16:18;;;;;;;12.75;4.60;;;;;;;8.77;53.19;101660.50;4962262;28;20424;-70
2023/02/21 13:18:58;;;;;;;18.50;5.10;;;;;;;8.81;52.78;101663.88;4957943;28;20291;-69
2023/02/21 13:21:31;;;;;;;10.18;3.55;;;;;;;8.56;53.25;101664.31;4962717;28;20030;-69
2023/02/21 13:24:01;;;;;;;11.88;3.97;;;;;;;8.82;53.07;101658.66;4959874;28;20043;-69
2023/02/21 13:27:35;;;;;;;12.45;3.65;;;;;;;8.27;54.14;101667.47;4960371;28;20122;-69
2023/02/21 13:30:12;;;;;;;13.82;4.57;;;;;;;8.39;54.06;101661.19;4962213;28;20045;-69
2023/02/21 13:32:39;;;;;;;13.38;3.90;;;;;;;8.23;54.36;101663.22;4974320;28;20642;-69
2023/02/21 13:35:10;;;;;;;23.33;5.10;;;;;;;8.45;53.59;101656.72;4962170;28;20042;-69
2023/02/21 13:37:45;;;;;;;9.05;3.88;;;;;;;8.21;54.62;101649.38;4958671;28;20042;-69
2023/02/21 13:40:46;;;;;;;16.30;4.30;;;;;;;8.67;53.62;101653.69;4961968;28;20042;-68
2023/02/21 13:43:21;;;;;;;13.20;4.05;;;;;;;8.75;52.92;101644.88;4966079;28;20047;-68
2023/02/21 13:45:47;;;;;;;16.52;4.57;;;;;;;8.28;53.98;101649.22;4989470;28;20039;-69
2023/02/21 13:48:36;;;;;;;16.25;3.95;;;;;;;8.54;53.82;101642.69;4947924;28;20051;-69
2023/02/21 13:51:03;;;;;;;8.55;3.47;;;;;;;8.68;53.17;101642.41;4945586;28;20170;-70
2023/02/21 13:53:34;;;;;;;18.88;3.97;;;;;;;8.60;53.12;101641.69;4953682;28;20042;-68
2023/02/21 13:55:59;;;;;;;9.90;3.67;;;;;;;9.05;52.71;101636.44;4962176;28;20038;-69
2023/02/21 13:58:35;;;;;;;13.80;4.15;;;;;;;8.65;52.81;101632.91;4950035;28;20054;-69
2023/02/21 14:01:28;;;;;;;11.20;4.88;;;;;;;8.27;54.31;101641.41;4942332;28;20034;-70
2023/02/21 14:03:56;;;;;;;11.40;3.88;;;;;;;8.17;54.19;101634.69;4956573;28;20567;-69
2023/02/21 14:06:35;;;;;;;8.05;3.75;;;;;;;8.63;53.40;101628.59;4958580;28;20031;-70
2023/02/21 14:09:10;;;;;;;13.38;4.63;;;;;;;9.31;52.46;101631.53;4943067;28;20065;-69
2023/02/21 14:11:45;;;;;;;11.05;3.08;;;;;;;9.31;51.48;101622.84;4956202;28;20057;-69
2023/02/21 14:14:22;;;;;;;15.10;3.90;;;;;;;9.35;51.35;101629.72;4961947;28;20051;-70